Time;durP1;ratioP1;P1;durP2;ratioP2;P2;SDS_P1;SDS_P2;PMS_P1;PMS_P2;Temp;Humidity;BMP_temperature;BMP_pressure;BME280_temperature;BME280_humidity;BME280_pressure;Samples;Min_cycle;Max_cycle;Signal;HPM_P1;HPM_P2
2023/09/17 00:00:37;;;;;;;13.52;7.88;;;;;;;18.30;83.58;99941.50;6111403;23;20011;-94
2023/09/17 00:03:03;;;;;;;8.25;6.93;;;;;;;18.25;83.50;99929.91;6085261;23;20432;-94
2023/09/17 00:05:29;;;;;;;12.70;7.85;;;;;;;18.24;83.44;99933.72;6111048;23;20067;-93
2023/09/17 00:07:54;;;;;;;11.18;7.95;;;;;;;18.16;83.32;99917.00;6086344;23;20029;-93
2023/09/17 00:10:22;;;;;;;14.95;8.07;;;;;;;18.08;84.03;99920.44;6110476;23;20336;-92
2023/09/17 00:12:48;;;;;;;10.23;7.20;;;;;;;18.13;83.69;99931.22;6087508;23;20020;-92
2023/09/17 00:15:13;;;;;;;10.27;7.68;;;;;;;18.20;83.79;99928.09;6109543;23;20001;-93
2023/09/17 00:17:40;;;;;;;11.63;7.18;;;;;;;18.07;83.99;99915.28;6086984;23;20002;-92
2023/09/17 00:20:10;;;;;;;11.05;7.45;;;;;;;18.08;83.95;99922.38;6088693;23;20002;-93
2023/09/17 00:22:36;;;;;;;9.60;7.03;;;;;;;18.15;83.67;99929.00;6110322;23;20010;-93
2023/09/17 00:25:02;;;;;;;11.07;7.78;;;;;;;18.01;83.34;99911.84;6086649;23;20032;-93
2023/09/17 00:27:27;;;;;;;13.93;8.43;;;;;;;18.03;83.66;99925.19;6085759;23;20367;-93
2023/09/17 00:29:54;;;;;;;13.45;7.47;;;;;;;18.00;83.98;99917.63;6109895;23;19997;-93
2023/09/17 00:32:19;;;;;;;8.60;6.93;;;;;;;18.00;83.76;99923.06;6102786;23;20008;-92
2023/09/17 00:34:45;;;;;;;10.93;7.35;;;;;;;17.92;83.54;99900.06;6110064;23;20001;-94
2023/09/17 00:37:10;;;;;;;8.48;6.35;;;;;;;17.98;83.31;99909.75;6111142;23;20036;-92
2023/09/17 00:39:36;;;;;;;10.82;7.00;;;;;;;17.92;83.45;99911.75;6112835;23;20008;-93
2023/09/17 00:42:01;;;;;;;11.60;6.70;;;;;;;17.91;83.39;99904.72;6112266;23;20033;-92
2023/09/17 00:44:26;;;;;;;8.70;6.65;;;;;;;17.93;83.60;99902.50;6113442;23;20065;-93
2023/09/17 00:46:52;;;;;;;11.70;7.28;;;;;;;17.93;83.62;99907.16;6112151;23;20009;-94
2023/09/17 00:49:18;;;;;;;11.80;7.55;;;;;;;17.92;83.79;99906.31;6113069;23;20455;-94
2023/09/17 00:51:46;;;;;;;18.38;7.85;;;;;;;17.81;83.69;99898.66;6136969;23;20044;-94
2023/09/17 00:54:12;;;;;;;13.65;7.40;;;;;;;17.71;83.74;99895.00;6136384;23;20060;-93
2023/09/17 00:56:38;;;;;;;8.05;6.68;;;;;;;17.79;83.47;99898.94;6112012;23;20444;-92
2023/09/17 00:59:07;;;;;;;8.30;6.78;;;;;;;17.75;83.20;99893.28;6112288;23;20005;-92
2023/09/17 01:01:33;;;;;;;11.10;7.35;;;;;;;17.75;82.87;99892.50;6113430;23;20002;-93
2023/09/17 01:03:59;;;;;;;9.35;7.05;;;;;;;17.81;83.28;99915.00;6112998;23;20009;-93
2023/09/17 01:06:27;;;;;;;14.80;6.78;;;;;;;17.65;83.33;99893.50;6112308;23;20447;-93
2023/09/17 01:08:53;;;;;;;12.10;6.72;;;;;;;17.67;83.50;99898.63;6114228;23;20012;-93
2023/09/17 01:11:19;;;;;;;15.77;7.35;;;;;;;17.58;83.71;99904.78;6113160;23;19998;-93
2023/09/17 01:13:51;;;;;;;11.45;7.60;;;;;;;17.63;83.37;99911.25;6112356;23;19997;-92
2023/09/17 01:16:17;;;;;;;14.40;7.00;;;;;;;17.63;83.06;99906.59;6114918;23;20008;-93
2023/09/17 01:18:42;;;;;;;9.85;6.97;;;;;;;17.69;82.96;99899.16;6112628;23;20084;-93
2023/09/17 01:21:16;;;;;;;13.73;7.20;;;;;;;17.64;83.43;99912.84;6111061;23;20356;-93
2023/09/17 01:23:46;;;;;;;11.52;7.07;;;;;;;17.55;83.49;99899.94;6138114;23;19997;-93
2023/09/17 01:26:26;;;;;;;10.73;7.20;;;;;;;17.54;83.38;99898.34;6136220;23;20433;-92
2023/09/17 01:28:55;;;;;;;9.13;6.22;;;;;;;17.56;83.39;99900.75;6112283;23;20029;-93
2023/09/17 01:31:26;;;;;;;10.20;7.10;;;;;;;17.60;83.17;99907.22;6112265;23;20025;-93
2023/09/17 01:33:53;;;;;;;12.80;7.00;;;;;;;17.53;83.37;99896.72;6115038;23;20001;-92
2023/09/17 01:36:20;;;;;;;12.43;6.95;;;;;;;17.55;83.12;99902.66;6110598;23;19993;-93
2023/09/17 01:38:49;;;;;;;9.23;6.65;;;;;;;17.55;83.16;99896.41;6137022;23;20024;-93
2023/09/17 01:41:15;;;;;;;11.90;6.47;;;;;;;17.57;83.81;99902.38;6136997;23;20429;-92
2023/09/17 01:43:41;;;;;;;9.63;6.18;;;;;;;17.45;83.22;99888.44;6135354;23;20499;-93
2023/09/17 01:46:07;;;;;;;11.95;6.88;;;;;;;17.45;83.57;99892.00;6111852;23;20089;-93
2023/09/17 01:48:32;;;;;;;11.82;6.82;;;;;;;17.52;83.30;99899.75;6111931;23;20001;-93
2023/09/17 01:50:59;;;;;;;11.02;6.30;;;;;;;17.46;83.42;99885.41;6136883;23;20013;-93
2023/09/17 01:53:25;;;;;;;9.18;6.50;;;;;;;17.45;83.34;99897.44;6111714;23;20006;-93
2023/09/17 01:55:56;;;;;;;10.70;6.32;;;;;;;17.47;83.24;99899.84;6111542;23;19993;-92
2023/09/17 01:58:22;;;;;;;11.15;6.85;;;;;;;17.41;83.11;99890.97;6114119;23;20001;-93
2023/09/17 02:00:49;;;;;;;10.75;6.65;;;;;;;17.43;83.13;99888.75;6111330;23;20006;-93
2023/09/17 02:03:14;;;;;;;11.73;6.30;;;;;;;17.35;83.30;99882.09;6135056;23;20436;-91
2023/09/17 02:05:40;;;;;;;13.98;6.93;;;;;;;17.36;83.31;99888.34;6135307;23;20068;-93
2023/09/17 02:08:05;;;;;;;13.00;7.32;;;;;;;17.37;83.31;99895.41;6135365;23;20008;-93
2023/09/17 02:10:31;;;;;;;8.68;6.50;;;;;;;17.38;82.99;99886.13;6112609;23;20028;-93
2023/09/17 02:12:57;;;;;;;9.75;6.30;;;;;;;17.35;83.00;99881.28;6112276;23;20001;-91
2023/09/17 02:15:22;;;;;;;12.38;6.45;;;;;;;17.33;82.89;99881.59;6111996;23;19997;-91
2023/09/17 02:17:51;;;;;;;14.50;5.90;;;;;;;17.32;82.84;99887.31;6110903;23;20348;-93
2023/09/17 02:20:16;;;;;;;7.53;5.82;;;;;;;17.33;82.97;99883.50;6112273;23;20002;-93
2023/09/17 02:22:42;;;;;;;9.55;6.53;;;;;;;17.37;82.53;99903.56;6136124;23;20008;-93
2023/09/17 02:25:10;;;;;;;10.55;5.82;;;;;;;17.24;82.55;99882.56;6111767;23;20017;-93
2023/09/17 02:27:35;;;;;;;8.68;6.35;;;;;;;17.25;82.73;99887.72;6159880;23;20002;-92
2023/09/17 02:30:01;;;;;;;14.80;8.00;;;;;;;17.24;82.58;99879.84;6112094;23;20010;-93
2023/09/17 02:32:26;;;;;;;12.68;6.40;;;;;;;17.26;82.63;99888.53;6110458;23;20463;-93
2023/09/17 02:34:52;;;;;;;10.10;6.38;;;;;;;17.26;82.78;99886.59;6110183;23;20008;-92
2023/09/17 02:37:17;;;;;;;7.72;6.45;;;;;;;17.25;82.72;99889.66;6111042;23;20005;-93
2023/09/17 02:39:43;;;;;;;9.70;5.93;;;;;;;17.25;82.61;99889.66;6135778;23;20002;-92
2023/09/17 02:42:12;;;;;;;10.95;6.43;;;;;;;17.26;82.85;99893.97;6110764;23;20028;-92
2023/09/17 02:44:37;;;;;;;8.20;6.75;;;;;;;17.14;82.73;99892.53;6088389;23;20001;-92
2023/09/17 02:47:03;;;;;;;13.80;6.28;;;;;;;17.15;82.42;99887.91;6110907;23;20002;-92
2023/09/17 02:49:28;;;;;;;14.60;5.65;;;;;;;17.13;82.29;99885.47;6111519;23;20009;-91
2023/09/17 02:51:54;;;;;;;10.02;5.90;;;;;;;17.06;82.13;99878.84;6110936;23;20416;-93
2023/09/17 02:54:21;;;;;;;13.23;6.72;;;;;;;17.11;82.45;99890.41;6110286;23;20416;-92
2023/09/17 02:56:46;;;;;;;9.90;6.60;;;;;;;17.05;82.09;99883.44;6087443;23;19997;-93
2023/09/17 02:59:13;;;;;;;13.13;5.88;;;;;;;17.01;82.05;99884.34;6088023;23;19997;-92
2023/09/17 03:01:40;;;;;;;9.88;6.13;;;;;;;17.00;81.52;99883.53;6111916;23;20003;-92
2023/09/17 03:04:06;;;;;;;17.75;5.60;;;;;;;16.96;81.57;99877.09;6112044;23;20028;-91
2023/09/17 03:06:33;;;;;;;8.00;6.03;;;;;;;16.89;81.50;99869.31;6086367;23;20032;-93
2023/09/17 03:08:59;;;;;;;9.25;5.57;;;;;;;16.92;81.44;99873.34;6136628;23;20068;-93
2023/09/17 03:11:26;;;;;;;12.65;5.70;;;;;;;16.96;82.10;99887.97;6135645;23;20059;-93
2023/09/17 03:13:52;;;;;;;7.97;5.63;;;;;;;16.82;82.19;99870.78;6110680;23;20140;-92
2023/09/17 03:16:18;;;;;;;9.10;6.72;;;;;;;16.76;82.40;99870.03;6111107;23;20017;-93
2023/09/17 03:18:44;;;;;;;7.35;5.82;;;;;;;16.83;81.90;99877.84;6111276;23;20016;-94
2023/09/17 03:21:10;;;;;;;9.57;5.50;;;;;;;16.78;81.92;99873.25;6111650;23;20005;-94
2023/09/17 03:23:36;;;;;;;9.02;6.03;;;;;;;16.80;82.52;99886.56;6087817;23;20079;-93
2023/09/17 03:26:03;;;;;;;9.02;5.72;;;;;;;16.59;82.57;99869.78;6110691;23;19998;-93
2023/09/17 03:28:29;;;;;;;12.23;6.28;;;;;;;16.67;82.78;99883.50;6086465;23;20006;-94
2023/09/17 03:30:54;;;;;;;13.32;5.50;;;;;;;16.66;82.15;99881.88;6110557;23;20029;-93
2023/09/17 03:33:20;;;;;;;7.97;6.13;;;;;;;16.63;82.14;99882.47;6086780;23;20005;-91
2023/09/17 03:35:48;;;;;;;8.40;5.40;;;;;;;16.70;82.60;99892.97;6087496;23;20001;-93
2023/09/17 03:38:14;;;;;;;7.70;5.40;;;;;;;16.60;82.49;99880.38;6134877;23;20005;-94
2023/09/17 03:40:39;;;;;;;7.20;5.38;;;;;;;16.55;82.61;99885.88;6087490;23;20431;-93
2023/09/17 03:43:05;;;;;;;10.75;6.00;;;;;;;16.62;82.54;99885.50;6085900;23;20013;-93
2023/09/17 03:45:31;;;;;;;8.65;5.85;;;;;;;16.44;82.24;99854.53;6110278;23;20009;-93
2023/09/17 03:47:56;;;;;;;9.10;5.65;;;;;;;16.54;83.11;99874.19;6111846;23;20001;-94
2023/09/17 03:50:22;;;;;;;9.90;5.85;;;;;;;16.61;82.88;99892.03;6109182;23;20060;-93
2023/09/17 03:52:49;;;;;;;11.63;6.22;;;;;;;16.53;83.20;99879.91;6110566;23;20113;-93
2023/09/17 03:55:14;;;;;;;8.40;5.60;;;;;;;16.56;83.33;99887.50;6112533;23;20420;-92
2023/09/17 03:57:40;;;;;;;10.13;5.40;;;;;;;16.53;83.15;99885.34;6086899;23;20001;-93
2023/09/17 04:00:07;;;;;;;8.75;6.03;;;;;;;16.53;83.22;99882.63;6135954;23;20001;-93
2023/09/17 04:02:36;;;;;;;7.35;5.63;;;;;;;16.48;83.40;99880.00;6110909;23;20002;-93
2023/09/17 04:05:08;;;;;;;12.70;6.25;;;;;;;16.45;83.08;99880.59;6109545;23;20020;-92
2023/09/17 04:07:35;;;;;;;7.80;5.38;;;;;;;16.55;82.70;99891.31;6112307;23;20031;-93
2023/09/17 04:10:02;;;;;;;9.18;5.38;;;;;;;16.51;82.53;99890.28;6110159;23;19997;-92
2023/09/17 04:12:27;;;;;;;11.10;6.07;;;;;;;16.49;82.59;99895.22;6086775;23;20006;-92
2023/09/17 04:14:53;;;;;;;11.55;6.30;;;;;;;16.44;82.50;99881.72;6087003;23;20010;-93
2023/09/17 04:17:20;;;;;;;8.82;5.78;;;;;;;16.52;82.66;99878.31;6108964;23;20337;-93
2023/09/17 04:19:45;;;;;;;9.50;6.13;;;;;;;16.66;82.51;99895.47;6110370;23;20364;-93
2023/09/17 04:22:11;;;;;;;8.63;6.20;;;;;;;16.65;82.49;99887.63;6086530;23;20036;-93
2023/09/17 04:24:38;;;;;;;11.90;5.82;;;;;;;16.71;82.70;99894.59;6109378;23;20005;-93
2023/09/17 04:27:04;;;;;;;10.07;6.05;;;;;;;16.69;82.74;99884.03;6087011;23;20033;-93
2023/09/17 04:29:29;;;;;;;8.77;5.57;;;;;;;16.74;82.74;99886.63;6087278;23;20006;-93
2023/09/17 04:31:55;;;;;;;11.05;5.70;;;;;;;16.72;82.77;99872.53;6098264;23;20017;-92
2023/09/17 04:34:20;;;;;;;8.02;5.95;;;;;;;16.80;82.56;99881.13;6110762;23;20002;-94
2023/09/17 04:36:47;;;;;;;10.18;6.25;;;;;;;16.89;82.74;99888.34;6111301;23;19997;-93
2023/09/17 04:39:14;;;;;;;8.38;6.10;;;;;;;16.95;82.62;99889.88;6111661;23;20455;-92
2023/09/17 04:41:40;;;;;;;14.55;6.10;;;;;;;16.81;82.92;99888.19;6110520;23;20009;-93
2023/09/17 04:44:10;;;;;;;9.40;5.90;;;;;;;16.79;82.40;99893.94;6109142;23;20047;-93
2023/09/17 04:46:40;;;;;;;6.35;5.18;;;;;;;16.79;81.87;99888.50;6113476;23;20002;-93
2023/09/17 04:49:06;;;;;;;10.23;5.32;;;;;;;16.71;81.53;99881.00;6135050;23;20025;-93
2023/09/17 04:51:34;;;;;;;10.23;6.05;;;;;;;16.83;81.19;99886.00;6110678;23;20032;-93
2023/09/17 04:54:00;;;;;;;11.85;5.45;;;;;;;17.02;81.22;99908.53;6137059;23;19997;-93
2023/09/17 04:56:26;;;;;;;7.95;5.68;;;;;;;17.03;80.47;99893.81;6110209;23;20417;-94
2023/09/17 04:58:51;;;;;;;6.97;5.18;;;;;;;17.12;80.35;99899.38;6111954;23;20005;-92
2023/09/17 05:01:18;;;;;;;9.07;4.43;;;;;;;17.11;79.35;99893.13;6110438;23;19997;-93
2023/09/17 05:03:46;;;;;;;9.43;5.22;;;;;;;17.23;78.54;99909.00;6110430;23;20009;-93
2023/09/17 05:06:12;;;;;;;8.40;5.20;;;;;;;17.16;78.92;99890.34;6110066;23;20010;-93
2023/09/17 05:08:38;;;;;;;7.93;4.72;;;;;;;17.31;78.08;99902.06;6134662;23;20004;-92
2023/09/17 05:11:05;;;;;;;6.10;4.75;;;;;;;17.43;78.01;99915.97;6110943;23;20001;-93
2023/09/17 05:13:30;;;;;;;9.98;5.47;;;;;;;17.33;78.25;99913.44;6110995;23;20005;-93
2023/09/17 05:15:56;;;;;;;9.07;5.63;;;;;;;17.35;78.80;99912.03;6134258;23;20013;-93
2023/09/17 05:18:22;;;;;;;10.98;7.80;;;;;;;17.20;79.46;99887.78;6111724;23;20004;-93
2023/09/17 05:20:48;;;;;;;9.45;6.07;;;;;;;17.37;79.39;99912.53;6110350;23;20444;-93
2023/09/17 05:23:13;;;;;;;10.02;5.80;;;;;;;17.39;79.31;99912.25;6109766;23;20005;-93
2023/09/17 05:25:39;;;;;;;12.65;6.18;;;;;;;17.42;79.35;99916.28;6136122;23;20001;-93
2023/09/17 05:28:06;;;;;;;10.30;6.15;;;;;;;17.36;79.41;99910.91;6111222;23;20001;-93
2023/09/17 05:30:35;;;;;;;6.85;5.47;;;;;;;17.42;79.00;99913.56;6112941;23;20024;-93
2023/09/17 05:33:01;;;;;;;9.73;6.10;;;;;;;17.45;79.37;99924.66;6089097;23;20001;-94
2023/09/17 05:35:27;;;;;;;10.07;5.57;;;;;;;17.43;79.25;99912.44;6086989;23;20420;-92
2023/09/17 05:37:52;;;;;;;6.47;5.32;;;;;;;17.51;79.08;99926.16;6087192;23;20001;-93
2023/09/17 05:40:17;;;;;;;13.60;5.57;;;;;;;17.57;78.62;99926.88;6087788;23;20005;-93
2023/09/17 05:42:43;;;;;;;8.75;6.15;;;;;;;17.51;78.89;99912.53;6087110;23;20336;-93
2023/09/17 05:45:09;;;;;;;9.70;6.25;;;;;;;17.49;78.90;99920.22;6090138;23;19981;-93
2023/09/17 05:47:34;;;;;;;8.18;5.93;;;;;;;17.46;79.23;99915.38;6089537;23;20463;-93
2023/09/17 05:50:00;;;;;;;15.55;6.80;;;;;;;17.36;79.59;99902.75;6113975;23;20084;-93
2023/09/17 05:52:26;;;;;;;8.80;5.80;;;;;;;17.47;79.04;99908.84;6091650;23;19998;-93
2023/09/17 05:54:51;;;;;;;10.30;6.05;;;;;;;17.51;78.64;99923.44;6113160;23;20356;-93
2023/09/17 05:57:18;;;;;;;11.88;6.35;;;;;;;17.44;79.42;99914.84;6090797;23;20005;-92
2023/09/17 05:59:43;;;;;;;12.65;5.97;;;;;;;17.53;79.58;99918.50;6087774;23;20012;-94
2023/09/17 06:02:11;;;;;;;10.77;6.57;;;;;;;17.64;78.84;99919.13;6089109;23;19994;-93
2023/09/17 06:04:37;;;;;;;7.13;6.43;;;;;;;17.66;78.92;99911.47;6112584;23;20016;-95
2023/09/17 06:07:03;;;;;;;16.40;6.68;;;;;;;17.85;78.48;99916.03;6088293;23;20096;-92
2023/09/17 06:09:29;;;;;;;11.65;6.32;;;;;;;17.82;78.90;99911.94;6088733;23;20006;-93
2023/09/17 06:11:57;;;;;;;10.25;6.25;;;;;;;17.90;79.30;99900.38;6088233;23;20005;-92
2023/09/17 06:14:23;;;;;;;9.52;6.57;;;;;;;17.92;79.28;99900.06;6087064;23;20063;-93
2023/09/17 06:16:48;;;;;;;14.07;6.47;;;;;;;18.01;79.13;99906.41;6087752;23;20009;-93
2023/09/17 06:19:14;;;;;;;14.00;6.60;;;;;;;18.22;79.04;99916.88;6086763;23;20006;-93
2023/09/17 06:21:41;;;;;;;11.55;6.30;;;;;;;18.38;78.77;99924.41;6087702;23;20088;-93
2023/09/17 06:24:07;;;;;;;12.80;7.95;;;;;;;18.46;78.54;99922.06;6087881;23;20001;-92
2023/09/17 06:26:32;;;;;;;13.30;9.15;;;;;;;18.70;77.92;99935.44;6110470;23;20360;-94
2023/09/17 06:28:58;;;;;;;15.18;7.15;;;;;;;18.80;77.67;99931.66;6087049;23;20005;-94
2023/09/17 06:31:24;;;;;;;8.50;6.55;;;;;;;18.91;76.96;99909.28;6087802;23;20013;-94
2023/09/17 06:33:49;;;;;;;9.90;6.60;;;;;;;19.17;75.86;99920.38;6111701;23;20004;-94
2023/09/17 06:36:15;;;;;;;11.55;6.43;;;;;;;19.30;75.39;99929.59;6112826;23;19989;-93
2023/09/17 06:38:40;;;;;;;12.73;7.82;;;;;;;19.42;75.38;99926.28;6089324;23;20344;-93
2023/09/17 06:41:06;;;;;;;14.68;7.68;;;;;;;19.62;74.32;99926.88;6113084;23;19997;-93
2023/09/17 06:43:32;;;;;;;13.30;6.35;;;;;;;19.74;72.92;99927.91;6088175;23;20005;-93
2023/09/17 06:45:58;;;;;;;7.70;5.85;;;;;;;19.92;72.28;99933.41;6086924;23;20012;-92
2023/09/17 06:48:25;;;;;;;15.05;6.35;;;;;;;20.04;72.57;99924.59;6114642;23;20355;-93
2023/09/17 06:50:51;;;;;;;9.73;6.22;;;;;;;20.01;72.22;99912.38;6135962;23;20000;-93
2023/09/17 06:53:16;;;;;;;9.85;6.20;;;;;;;20.13;73.73;99934.44;6088745;23;20002;-93
2023/09/17 06:55:41;;;;;;;10.00;6.93;;;;;;;20.18;74.46;99937.00;6087229;23;19997;-93
2023/09/17 06:58:07;;;;;;;15.23;7.50;;;;;;;20.20;73.87;99917.56;6086831;23;20159;-93
2023/09/17 07:00:32;;;;;;;12.38;6.97;;;;;;;20.31;74.37;99921.59;6089082;23;20005;-93
2023/09/17 07:02:58;;;;;;;16.50;7.32;;;;;;;20.28;74.18;99924.97;6111190;23;20013;-93
2023/09/17 07:05:24;;;;;;;16.38;6.70;;;;;;;20.34;73.72;99929.16;6112678;23;20001;-93
2023/09/17 07:07:50;;;;;;;12.32;6.70;;;;;;;20.34;73.30;99917.44;6086725;23;20032;-93
2023/09/17 07:10:15;;;;;;;8.57;5.28;;;;;;;20.57;73.08;99932.56;6086643;23;20400;-92
2023/09/17 07:12:42;;;;;;;7.88;5.40;;;;;;;20.64;72.39;99928.56;6111519;23;19998;-92
2023/09/17 07:15:10;;;;;;;18.92;7.47;;;;;;;20.70;71.63;99928.06;6110042;23;20008;-92
2023/09/17 07:17:36;;;;;;;15.68;6.82;;;;;;;20.80;70.54;99943.38;6085595;23;19997;-93
2023/09/17 07:20:04;;;;;;;12.80;7.20;;;;;;;20.95;70.06;99936.59;6111261;23;19998;-93
2023/09/17 07:22:29;;;;;;;10.15;6.45;;;;;;;20.99;70.05;99935.63;6087647;23;20001;-93
2023/09/17 07:24:58;;;;;;;12.02;5.32;;;;;;;20.92;68.63;99940.00;6087183;23;20068;-92
2023/09/17 07:27:29;;;;;;;13.98;6.45;;;;;;;21.10;68.47;99936.06;6089332;23;20013;-93
2023/09/17 07:29:54;;;;;;;8.98;6.38;;;;;;;21.21;69.05;99936.56;6110625;23;20033;-93
2023/09/17 07:32:20;;;;;;;12.57;6.38;;;;;;;21.32;68.83;99942.50;6128475;23;20088;-92
2023/09/17 07:34:46;;;;;;;12.65;6.30;;;;;;;21.36;68.45;99943.44;6135812;23;20002;-93
2023/09/17 07:37:12;;;;;;;8.48;5.55;;;;;;;21.53;68.30;99940.66;6133590;23;20455;-94
2023/09/17 07:39:38;;;;;;;9.40;5.95;;;;;;;21.67;69.16;99943.19;6111238;23;20181;-93
2023/09/17 07:42:04;;;;;;;12.43;6.60;;;;;;;21.83;69.64;99946.22;6111111;23;20006;-92
2023/09/17 07:44:30;;;;;;;11.32;5.80;;;;;;;21.98;69.13;99939.34;6111740;23;19998;-93
2023/09/17 07:46:55;;;;;;;14.93;5.95;;;;;;;21.89;70.43;99911.94;6110851;23;20104;-92
2023/09/17 07:49:27;;;;;;;8.25;4.78;;;;;;;22.03;69.23;99927.38;6110323;23;20009;-94
2023/09/17 07:51:52;;;;;;;10.82;5.53;;;;;;;22.19;67.97;99931.16;6135997;23;20006;-92
2023/09/17 07:54:18;;;;;;;8.77;5.13;;;;;;;22.32;66.55;99930.13;6110681;23;20012;-91
2023/09/17 07:56:44;;;;;;;8.23;5.18;;;;;;;22.42;66.43;99922.63;6133514;23;20001;-92
2023/09/17 07:59:10;;;;;;;6.90;5.03;;;;;;;22.48;66.12;99921.31;6134381;23;20025;-92
2023/09/17 08:01:35;;;;;;;8.30;5.30;;;;;;;22.59;65.78;99925.22;6134116;23;20317;-93
2023/09/17 08:04:01;;;;;;;6.97;4.80;;;;;;;22.74;64.81;99930.13;6109332;23;20025;-92
2023/09/17 08:06:27;;;;;;;12.68;7.63;;;;;;;22.81;64.72;99921.34;6111298;23;20009;-93
2023/09/17 08:08:56;;;;;;;9.35;5.28;;;;;;;22.95;64.13;99921.03;6109833;23;20140;-92
2023/09/17 08:11:22;;;;;;;10.50;4.88;;;;;;;22.94;63.94;99920.22;6112364;23;20002;-92
2023/09/17 08:13:50;;;;;;;8.38;4.85;;;;;;;22.84;62.30;99912.41;6111321;23;20008;-93
2023/09/17 08:16:19;;;;;;;8.63;5.28;;;;;;;23.01;61.93;99933.44;6110953;23;20080;-92
2023/09/17 08:18:45;;;;;;;9.52;4.80;;;;;;;23.09;60.89;99918.03;6135140;23;20032;-92
2023/09/17 08:21:12;;;;;;;9.75;6.05;;;;;;;23.11;61.14;99907.50;6135371;23;19997;-93
2023/09/17 08:24:02;;;;;;;6.72;4.60;;;;;;;23.25;58.42;99934.66;6159888;23;20037;-92
2023/09/17 08:26:28;;;;;;;10.82;4.43;;;;;;;23.24;57.56;99927.56;6135071;23;20025;-92
2023/09/17 08:28:56;;;;;;;8.38;4.45;;;;;;;23.20;56.50;99914.50;6135287;23;19998;-91
2023/09/17 08:31:22;;;;;;;8.57;4.60;;;;;;;23.30;55.67;99920.69;6133693;23;20021;-92
2023/09/17 08:33:48;;;;;;;8.10;4.63;;;;;;;23.26;54.75;99912.31;6108605;23;20014;-91
2023/09/17 08:36:15;;;;;;;6.38;4.30;;;;;;;23.32;54.95;99908.22;6136976;23;20016;-93
2023/09/17 08:38:44;;;;;;;11.25;5.88;;;;;;;23.34;56.66;99918.88;6111793;23;20008;-91
2023/09/17 08:41:09;;;;;;;9.07;4.30;;;;;;;23.36;56.12;99927.59;6135536;23;19998;-91
2023/09/17 08:43:35;;;;;;;7.07;4.57;;;;;;;23.39;55.58;99907.69;6108959;23;20046;-92
2023/09/17 08:46:01;;;;;;;8.00;5.28;;;;;;;23.47;54.99;99911.44;6110916;23;20429;-91
2023/09/17 08:48:26;;;;;;;6.55;4.03;;;;;;;23.63;55.16;99919.84;6134569;23;20033;-93
2023/09/17 08:50:53;;;;;;;7.85;4.60;;;;;;;23.64;55.04;99907.66;6157783;23;20437;-92
2023/09/17 08:53:26;;;;;;;10.70;4.38;;;;;;;23.70;55.26;99895.31;6111305;23;20005;-91
2023/09/17 08:55:54;;;;;;;7.45;4.32;;;;;;;23.69;54.96;99890.97;6135568;23;19997;-92
2023/09/17 08:58:24;;;;;;;9.07;4.45;;;;;;;23.80;54.57;99887.44;6134106;23;20001;-93
2023/09/17 09:00:50;;;;;;;6.25;3.95;;;;;;;23.83;54.97;99898.91;6112987;23;20004;-93
2023/09/17 09:03:16;;;;;;;6.90;4.35;;;;;;;23.91;55.06;99909.00;6111580;23;20002;-93
2023/09/17 09:05:42;;;;;;;10.65;4.50;;;;;;;23.93;54.29;99893.72;6111600;23;20020;-94
2023/09/17 09:08:08;;;;;;;6.68;4.47;;;;;;;24.09;54.04;99898.50;6136125;23;20064;-92
2023/09/17 09:10:33;;;;;;;6.32;4.43;;;;;;;24.09;53.20;99893.81;6111608;23;20443;-91
2023/09/17 09:13:03;;;;;;;8.55;4.35;;;;;;;24.11;53.60;99893.47;6113167;23;20000;-92
2023/09/17 09:15:28;;;;;;;6.15;4.07;;;;;;;24.27;52.97;99888.84;6136669;23;20084;-92
2023/09/17 09:17:55;;;;;;;10.00;4.57;;;;;;;24.19;51.76;99884.28;6135960;23;20024;-93
2023/09/17 09:20:20;;;;;;;13.15;4.80;;;;;;;24.18;50.93;99893.69;6136399;23;20428;-93
2023/09/17 09:22:46;;;;;;;9.60;4.13;;;;;;;24.19;50.23;99881.53;6136326;23;19997;-92
2023/09/17 09:25:15;;;;;;;8.38;4.00;;;;;;;24.21;48.98;99871.78;6135565;23;19997;-92
2023/09/17 09:27:41;;;;;;;9.63;4.70;;;;;;;24.29;49.34;99861.78;6112350;23;20528;-92
2023/09/17 09:30:09;;;;;;;7.15;4.30;;;;;;;24.49;50.16;99878.47;6112280;23;20354;-92
2023/09/17 09:32:44;;;;;;;8.20;4.40;;;;;;;24.63;50.59;99895.41;6136990;23;20013;-92
2023/09/17 09:35:10;;;;;;;7.32;4.22;;;;;;;24.55;49.21;99882.59;6138664;23;20017;-93
2023/09/17 09:37:36;;;;;;;9.50;4.30;;;;;;;24.53;48.42;99876.63;6109843;23;20001;-92
2023/09/17 09:40:02;;;;;;;9.82;4.45;;;;;;;24.65;47.65;99884.03;6138125;23;20009;-93
2023/09/17 09:42:28;;;;;;;7.13;3.85;;;;;;;24.60;45.47;99894.16;6113311;23;20363;-92
2023/09/17 09:44:54;;;;;;;6.25;4.15;;;;;;;24.69;45.68;99876.69;6111299;23;19998;-93
2023/09/17 09:47:21;;;;;;;7.53;4.20;;;;;;;24.76;47.85;99887.91;6113448;23;20006;-93
2023/09/17 09:49:46;;;;;;;9.18;4.72;;;;;;;24.80;47.39;99866.78;6112010;23;20348;-93
2023/09/17 09:52:13;;;;;;;7.13;3.80;;;;;;;24.96;47.47;99886.88;6111589;23;19998;-93
2023/09/17 09:54:42;;;;;;;7.57;4.40;;;;;;;24.94;46.98;99877.38;6135927;23;20001;-93
2023/09/17 09:57:08;;;;;;;7.53;3.95;;;;;;;24.80;47.85;99867.56;6111772;23;20080;-93
2023/09/17 09:59:36;;;;;;;10.23;6.03;;;;;;;24.98;48.67;99889.28;6112539;23;20002;-94
2023/09/17 10:02:04;;;;;;;8.52;3.55;;;;;;;25.01;45.80;99889.38;6111647;23;20002;-94
2023/09/17 10:04:30;;;;;;;10.05;4.07;;;;;;;25.12;46.00;99891.63;6110452;23;20001;-94
2023/09/17 10:06:56;;;;;;;6.43;3.70;;;;;;;25.00;44.82;99874.00;6110964;23;20419;-93
2023/09/17 10:09:27;;;;;;;8.00;4.40;;;;;;;25.00;45.14;99857.47;6110769;23;19997;-93
2023/09/17 10:11:53;;;;;;;8.80;4.95;;;;;;;25.06;46.71;99880.03;6111278;23;20001;-93
2023/09/17 10:14:20;;;;;;;11.55;4.80;;;;;;;25.20;46.29;99888.72;6113272;23;20006;-93
2023/09/17 10:16:45;;;;;;;6.72;4.13;;;;;;;25.33;44.73;99891.41;6111246;23;20001;-94
2023/09/17 10:19:18;;;;;;;6.80;3.80;;;;;;;25.25;44.82;99878.59;6113804;23;19997;-93
2023/09/17 10:21:44;;;;;;;8.75;3.97;;;;;;;25.30;45.60;99870.84;6112805;23;20060;-92
2023/09/17 10:24:09;;;;;;;5.47;3.60;;;;;;;25.35;44.06;99862.31;6111178;23;20001;-93
2023/09/17 10:26:41;;;;;;;7.38;3.55;;;;;;;25.48;43.09;99878.75;6135485;23;20012;-93
2023/09/17 10:29:07;;;;;;;8.57;3.85;;;;;;;25.29;43.31;99865.69;6111893;23;19998;-93
2023/09/17 10:31:33;;;;;;;7.90;3.63;;;;;;;25.30;42.15;99861.78;6101358;23;20032;-91
2023/09/17 10:33:59;;;;;;;6.32;2.95;;;;;;;25.35;41.21;99854.03;6111464;23;20428;-92
2023/09/17 10:36:25;;;;;;;5.40;3.45;;;;;;;25.41;42.85;99849.06;6087041;23;20004;-92
2023/09/17 10:38:52;;;;;;;6.65;3.55;;;;;;;25.52;43.69;99865.88;6086855;23;20356;-93
2023/09/17 10:41:17;;;;;;;7.03;3.78;;;;;;;25.55;43.24;99843.91;6085919;23;20002;-92
2023/09/17 10:43:43;;;;;;;9.07;3.70;;;;;;;25.68;42.53;99841.03;6110386;23;20349;-93
2023/09/17 10:46:09;;;;;;;6.47;3.67;;;;;;;25.75;42.10;99847.53;6111328;23;20058;-92
2023/09/17 10:48:34;;;;;;;7.68;3.95;;;;;;;25.68;42.50;99841.81;6135546;23;19998;-92
2023/09/17 10:51:00;;;;;;;6.25;3.83;;;;;;;25.89;42.83;99854.50;6133397;23;20001;-93
2023/09/17 10:53:26;;;;;;;4.95;3.42;;;;;;;25.93;43.49;99856.22;6111920;23;20045;-92
2023/09/17 10:56:06;;;;;;;15.40;4.50;;;;;;;25.87;42.73;99845.78;6086761;23;19997;-92
2023/09/17 10:58:42;;;;;;;6.85;3.97;;;;;;;25.88;44.53;99833.56;6112791;23;20001;-92
2023/09/17 11:01:08;;;;;;;8.18;4.18;;;;;;;25.96;44.44;99830.66;6087570;23;20330;-92
2023/09/17 11:03:37;;;;;;;6.18;4.18;;;;;;;25.93;44.45;99831.38;6110792;23;20005;-92
2023/09/17 11:06:04;;;;;;;10.98;4.65;;;;;;;26.00;44.50;99833.47;6110390;23;19990;-93
2023/09/17 11:08:30;;;;;;;8.90;3.80;;;;;;;25.80;43.08;99816.09;6087106;23;20001;-92
2023/09/17 11:10:55;;;;;;;7.60;3.58;;;;;;;25.85;43.42;99813.03;6085542;23;19997;-92
2023/09/17 11:13:21;;;;;;;8.43;3.70;;;;;;;25.86;41.19;99822.09;6111812;23;20071;-92
2023/09/17 11:15:49;;;;;;;6.43;3.70;;;;;;;25.99;41.43;99829.94;6110311;23;20020;-92
2023/09/17 11:18:14;;;;;;;8.18;4.00;;;;;;;26.02;40.23;99820.13;6086075;23;20012;-92
2023/09/17 11:21:18;;;;;;;8.07;3.60;;;;;;;26.15;39.82;99834.59;6110325;23;19981;-92
2023/09/17 11:23:45;;;;;;;7.55;3.28;;;;;;;26.22;39.93;99823.69;6040793;23;20050;-92
2023/09/17 11:26:17;;;;;;;6.50;3.85;;;;;;;26.19;39.88;99808.69;5994381;23;20016;-92